Time;durP1;ratioP1;P1;durP2;ratioP2;P2;SDS_P1;SDS_P2;PMS_P1;PMS_P2;Temp;Humidity;BMP_temperature;BMP_pressure;BME280_temperature;BME280_humidity;BME280_pressure;Samples;Min_cycle;Max_cycle;Signal;HPM_P1;HPM_P2
2023/09/26 00:01:12;;;;;;;20.45;12.95;;;;;;;;;;5081701;28;20028;-61
2023/09/26 00:03:40;;;;;;;19.92;12.63;;;;;;;;;;5093109;28;20032;-61
2023/09/26 00:06:07;;;;;;;;;;;;;;;;;;5093787;28;20031;-62
2023/09/26 00:08:33;;;;;;;19.30;12.35;;;;;;;;;;5074754;28;19904;-61
2023/09/26 00:10:59;;;;;;;21.23;12.35;;;;;;;;;;5092849;28;20113;-60
2023/09/26 00:13:25;;;;;;;17.98;12.18;;;;;;;;;;5093212;28;20113;-62
2023/09/26 00:15:51;;;;;;;18.83;12.45;;;;;;;;;;5092958;28;20110;-62
2023/09/26 00:18:17;;;;;;;20.80;13.30;;;;;;;;;;5093275;28;20110;-62
2023/09/26 00:20:44;;;;;;;20.83;12.00;;;;;;;;;;5092817;28;20466;-62
2023/09/26 00:23:11;;;;;;;21.00;12.60;;;;;;;;;;5093169;28;20147;-60
2023/09/26 00:25:37;;;;;;;21.30;12.82;;;;;;;;;;5093404;28;20016;-61
2023/09/26 00:28:03;;;;;;;20.55;12.52;;;;;;;;;;5093309;28;20016;-62
2023/09/26 00:30:30;;;;;;;21.05;12.23;;;;;;;;;;5092452;28;20385;-60
2023/09/26 00:32:56;;;;;;;18.48;11.77;;;;;;;;;;5093376;28;20020;-62
2023/09/26 00:35:22;;;;;;;19.23;11.85;;;;;;;;;;5074371;28;20020;-60
2023/09/26 00:37:49;;;;;;;20.27;11.82;;;;;;;;;;5093244;28;20027;-60
2023/09/26 00:40:18;;;;;;;19.45;12.13;;;;;;;;;;5093253;28;20028;-62
2023/09/26 00:42:44;;;;;;;21.42;12.18;;;;;;;;;;5074805;28;20028;-62
2023/09/26 00:45:11;;;;;;;19.63;12.10;;;;;;;;;;5093311;28;20125;-60
2023/09/26 00:47:38;;;;;;;19.85;12.45;;;;;;;;;;5092673;28;20465;-63
2023/09/26 00:50:11;;;;;;;21.10;11.82;;;;;;;;;;5074089;28;20079;-60
2023/09/26 00:52:38;;;;;;;19.63;11.77;;;;;;;;;;5074673;28;20051;-62
2023/09/26 00:55:04;;;;;;;21.23;12.50;;;;;;;;;;5093088;28;20024;-61
2023/09/26 00:57:33;;;;;;;21.98;12.20;;;;;;;;;;5074645;28;20052;-61
2023/09/26 01:00:02;;;;;;;21.27;12.75;;;;;;;;;;5092424;28;20024;-62
2023/09/26 01:02:27;;;;;;;20.52;11.32;;;;;;;;;;5092462;28;20020;-62
2023/09/26 01:04:55;;;;;;;21.85;13.07;;;;;;;;;;5092696;28;20032;-61
2023/09/26 01:07:24;;;;;;;19.63;11.60;;;;;;;;;;5092681;28;20063;-60
2023/09/26 01:09:50;;;;;;;19.27;11.85;;;;;;;;;;5092347;28;20028;-57
2023/09/26 01:12:16;;;;;;;22.67;13.18;;;;;;;;;;5091947;28;20024;-61
2023/09/26 01:14:43;;;;;;;19.95;12.57;;;;;;;;;;5092083;28;20028;-60
2023/09/26 01:17:09;;;;;;;19.88;12.50;;;;;;;;;;5092466;28;20035;-60
2023/09/26 01:19:35;;;;;;;20.45;12.35;;;;;;;;;;5073780;28;20090;-63
2023/09/26 01:22:01;;;;;;;20.23;11.85;;;;;;;;;;5091828;28;20420;-61
2023/09/26 01:24:27;;;;;;;19.55;13.07;;;;;;;;;;5092557;28;20031;-60
2023/09/26 01:26:55;;;;;;;20.70;11.88;;;;;;;;;;5092098;28;20031;-61
2023/09/26 01:29:21;;;;;;;19.87;12.70;;;;;;;;;;5091922;28;20396;-59
2023/09/26 01:31:47;;;;;;;20.40;12.95;;;;;;;;;;5092110;28;20023;-62
2023/09/26 01:34:13;;;;;;;19.63;12.50;;;;;;;;;;5092145;28;20024;-60
2023/09/26 01:36:39;;;;;;;23.05;12.77;;;;;;;;;;5074112;28;20030;-61
2023/09/26 01:39:05;;;;;;;20.25;12.63;;;;;;;;;;5091737;28;20032;-61
2023/09/26 01:41:31;;;;;;;20.88;13.18;;;;;;;;;;5091907;28;20104;-62
2023/09/26 01:43:58;;;;;;;23.23;12.73;;;;;;;;;;5091688;28;20024;-61
2023/09/26 01:46:25;;;;;;;21.90;13.55;;;;;;;;;;5091540;28;20221;-61
2023/09/26 01:48:51;;;;;;;21.58;13.95;;;;;;;;;;5091691;28;20125;-62
2023/09/26 01:51:17;;;;;;;20.98;12.60;;;;;;;;;;5091166;28;20020;-61
2023/09/26 01:53:43;;;;;;;19.67;12.10;;;;;;;;;;5091075;28;20024;-62
2023/09/26 01:56:09;;;;;;;21.00;12.50;;;;;;;;;;5090909;28;20035;-62
2023/09/26 01:58:35;;;;;;;22.00;12.98;;;;;;;;;;5090769;28;20037;-59
2023/09/26 02:01:01;;;;;;;20.00;13.15;;;;;;;;;;5074728;28;20098;-63
2023/09/26 02:03:27;;;;;;;20.33;12.48;;;;;;;;;;5094912;28;20020;-62
2023/09/26 02:05:56;;;;;;;22.27;13.35;;;;;;;;;;5094854;28;20028;-61
2023/09/26 02:08:22;;;;;;;21.80;13.63;;;;;;;;;;5094955;28;20031;-61
2023/09/26 02:10:48;;;;;;;21.63;13.15;;;;;;;;;;5076379;28;20027;-60
2023/09/26 02:13:14;;;;;;;20.63;12.73;;;;;;;;;;5076892;28;20126;-62
2023/09/26 02:15:40;;;;;;;20.50;13.80;;;;;;;;;;5094708;28;20064;-58
2023/09/26 02:18:06;;;;;;;21.08;13.40;;;;;;;;;;5094400;28;20439;-61
2023/09/26 02:20:32;;;;;;;20.55;13.70;;;;;;;;;;5076099;28;20020;-60
2023/09/26 02:22:59;;;;;;;22.48;14.75;;;;;;;;;;5094215;28;20744;-61
2023/09/26 02:25:25;;;;;;;22.90;13.40;;;;;;;;;;5094322;28;20032;-60
2023/09/26 02:27:51;;;;;;;19.65;12.98;;;;;;;;;;5094380;28;20058;-61
2023/09/26 02:30:28;;;;;;;20.98;13.15;;;;;;;;;;5076223;28;20633;-60
2023/09/26 02:32:55;;;;;;;20.50;13.65;;;;;;;;;;5094676;28;20028;-62
2023/09/26 02:35:21;;;;;;;21.55;13.52;;;;;;;;;;5094473;28;20113;-58
2023/09/26 02:37:47;;;;;;;20.98;13.60;;;;;;;;;;5094400;28;20024;-61
2023/09/26 02:40:13;;;;;;;20.33;13.55;;;;;;;;;;5093724;28;20020;-60
2023/09/26 02:42:46;;;;;;;22.42;14.05;;;;;;;;;;5093779;28;20020;-60
2023/09/26 02:45:13;;;;;;;19.98;13.57;;;;;;;;;;5093859;28;20359;-62
2023/09/26 02:47:39;;;;;;;21.92;12.07;;;;;;;;;;5075776;28;20481;-61
2023/09/26 02:50:06;;;;;;;20.50;14.50;;;;;;;;;;5075333;28;20074;-62
2023/09/26 02:52:32;;;;;;;19.73;14.02;;;;;;;;;;5093702;28;20024;-62
2023/09/26 02:54:58;;;;;;;20.25;13.98;;;;;;;;;;5093793;28;20069;-61
2023/09/26 02:57:24;;;;;;;20.85;14.25;;;;;;;;;;5093435;28;20035;-62
2023/09/26 02:59:50;;;;;;;21.80;14.48;;;;;;;;;;5093400;28;20417;-59
2023/09/26 03:02:16;;;;;;;22.42;14.18;;;;;;;;;;5093826;28;20016;-59
2023/09/26 03:04:42;;;;;;;20.02;13.45;;;;;;;;;;5093923;28;20077;-60
2023/09/26 03:07:09;;;;;;;22.05;14.15;;;;;;;;;;5093632;28;20016;-61
2023/09/26 03:09:35;;;;;;;22.15;14.57;;;;;;;;;;5093743;28;20393;-58
2023/09/26 03:12:01;;;;;;;21.45;14.55;;;;;;;;;;5093110;28;20031;-63
2023/09/26 03:14:27;;;;;;;23.30;16.05;;;;;;;;;;5093363;28;20131;-61
2023/09/26 03:16:53;;;;;;;22.00;14.10;;;;;;;;;;5093697;28;20429;-62
2023/09/26 03:19:23;;;;;;;19.85;13.82;;;;;;;;;;5075141;28;20148;-62
2023/09/26 03:21:50;;;;;;;23.25;14.73;;;;;;;;;;5093288;28;20035;-62
2023/09/26 03:24:16;;;;;;;21.73;14.30;;;;;;;;;;5093804;28;20024;-62
2023/09/26 03:26:42;;;;;;;21.25;14.00;;;;;;;;;;5093223;28;20039;-62
2023/09/26 03:29:08;;;;;;;19.48;13.45;;;;;;;;;;5092735;28;20043;-61
2023/09/26 03:31:34;;;;;;;22.08;14.60;;;;;;;;;;5093181;28;20036;-62
2023/09/26 03:34:01;;;;;;;22.30;14.40;;;;;;;;;;5093382;28;20159;-62
2023/09/26 03:36:27;;;;;;;21.48;13.50;;;;;;;;;;5092878;28;20115;-62
2023/09/26 03:38:53;;;;;;;23.95;14.13;;;;;;;;;;5092773;28;20024;-60
2023/09/26 03:41:19;;;;;;;21.17;13.95;;;;;;;;;;5092701;28;20078;-58
2023/09/26 03:43:46;;;;;;;20.58;14.27;;;;;;;;;;5092460;28;20106;-63
2023/09/26 03:46:12;;;;;;;21.88;14.48;;;;;;;;;;5074419;28;20070;-62
2023/09/26 03:48:38;;;;;;;22.70;14.40;;;;;;;;;;5092794;28;20389;-64
2023/09/26 03:51:11;;;;;;;22.38;14.52;;;;;;;;;;5092658;28;20063;-61
2023/09/26 03:53:37;;;;;;;22.00;14.77;;;;;;;;;;5074467;28;20031;-62
2023/09/26 03:56:03;;;;;;;20.48;14.60;;;;;;;;;;5092991;28;20077;-61
2023/09/26 03:58:29;;;;;;;21.55;14.35;;;;;;;;;;5092358;28;20028;-61
2023/09/26 04:00:55;;;;;;;27.08;15.40;;;;;;;;;;5092565;28;20038;-60
2023/09/26 04:03:21;;;;;;;22.88;14.60;;;;;;;;;;5092816;28;20077;-61
2023/09/26 04:05:48;;;;;;;25.63;15.15;;;;;;;;;;5092878;28;20023;-61
2023/09/26 04:08:17;;;;;;;24.45;15.88;;;;;;;;;;5092913;28;20019;-60
2023/09/26 04:10:43;;;;;;;29.42;15.55;;;;;;;;;;5092561;28;20539;-60
2023/09/26 04:13:09;;;;;;;29.92;17.20;;;;;;;;;;5092512;28;20027;-62
2023/09/26 04:15:38;;;;;;;29.08;14.85;;;;;;;;;;5092324;28;20097;-61
2023/09/26 04:18:05;;;;;;;27.02;14.48;;;;;;;;;;5092541;28;20032;-61
2023/09/26 04:20:31;;;;;;;26.08;15.25;;;;;;;;;;5092574;28;20081;-61
2023/09/26 04:22:57;;;;;;;21.30;14.00;;;;;;;;;;5091040;28;20044;-61
2023/09/26 04:25:23;;;;;;;22.63;14.73;;;;;;;;;;5091823;28;20388;-60
2023/09/26 04:27:49;;;;;;;23.08;16.17;;;;;;;;;;5092029;28;20072;-61
2023/09/26 04:30:15;;;;;;;25.05;15.80;;;;;;;;;;5091679;28;20458;-62
2023/09/26 04:32:41;;;;;;;25.80;15.95;;;;;;;;;;5092212;28;20055;-60
2023/09/26 04:35:08;;;;;;;23.80;15.82;;;;;;;;;;5092072;28;20043;-61
2023/09/26 04:37:35;;;;;;;27.92;19.90;;;;;;;;;;5091977;28;20033;-61
2023/09/26 04:40:01;;;;;;;22.77;14.77;;;;;;;;;;5091565;28;20339;-61
2023/09/26 04:42:27;;;;;;;22.10;15.98;;;;;;;;;;5091536;28;20035;-62
2023/09/26 04:44:53;;;;;;;23.42;16.00;;;;;;;;;;5091945;28;20028;-62
2023/09/26 04:47:19;;;;;;;23.27;15.40;;;;;;;;;;5091635;28;20090;-57
2023/09/26 04:49:44;;;;;;;25.52;16.02;;;;;;;;;;5091321;28;20361;-62
2023/09/26 04:52:10;;;;;;;25.35;16.13;;;;;;;;;;5091485;28;20035;-57
2023/09/26 04:54:36;;;;;;;23.52;16.17;;;;;;;;;;5073715;28;20060;-62
2023/09/26 04:57:02;;;;;;;22.13;15.25;;;;;;;;;;5092162;28;20461;-61
2023/09/26 04:59:28;;;;;;;25.60;16.02;;;;;;;;;;5091078;28;20028;-58
2023/09/26 05:01:54;;;;;;;23.10;15.70;;;;;;;;;;5091493;28;20032;-61
2023/09/26 05:04:20;;;;;;;21.92;14.55;;;;;;;;;;5091419;28;20036;-62
2023/09/26 05:06:46;;;;;;;22.60;16.60;;;;;;;;;;5091134;28;20075;-59
2023/09/26 05:09:12;;;;;;;26.67;17.48;;;;;;;;;;5091336;28;20032;-63
2023/09/26 05:11:38;;;;;;;26.80;16.58;;;;;;;;;;5090940;28;20496;-61
2023/09/26 05:14:04;;;;;;;21.85;15.57;;;;;;;;;;5090637;28;20111;-60
2023/09/26 05:16:30;;;;;;;25.33;15.95;;;;;;;;;;5090829;28;20115;-59
2023/09/26 05:18:56;;;;;;;23.85;15.18;;;;;;;;;;5090581;28;20081;-63
2023/09/26 05:21:22;;;;;;;27.10;16.65;;;;;;;;;;5091164;28;20047;-63
2023/09/26 05:23:48;;;;;;;22.98;15.32;;;;;;;;;;5091514;28;20102;-63
2023/09/26 05:26:14;;;;;;;22.65;16.13;;;;;;;;;;5091335;28;20050;-64
2023/09/26 05:28:40;;;;;;;27.45;16.02;;;;;;;;;;5090785;28;20032;-61
2023/09/26 05:31:07;;;;;;;22.02;15.38;;;;;;;;;;5090455;28;20057;-63
2023/09/26 05:33:33;;;;;;;32.05;16.08;;;;;;;;;;5078429;28;20119;-63
2023/09/26 05:35:59;;;;;;;24.80;15.65;;;;;;;;;;5082370;28;20055;-59
2023/09/26 05:38:28;;;;;;;24.35;16.27;;;;;;;;;;5070894;28;20036;-63
2023/09/26 05:40:54;;;;;;;22.98;16.27;;;;;;;;;;5074481;28;20020;-62
2023/09/26 05:43:21;;;;;;;25.30;18.08;;;;;;;;;;5090357;28;20435;-62
2023/09/26 05:45:51;;;;;;;22.23;15.98;;;;;;;;;;5091042;28;20071;-62
2023/09/26 05:48:17;;;;;;;26.98;15.65;;;;;;;;;;5072506;28;20046;-62
2023/09/26 05:50:43;;;;;;;21.45;14.95;;;;;;;;;;5075288;28;20064;-59
2023/09/26 05:53:09;;;;;;;24.95;16.90;;;;;;;;;;5051706;28;20025;-61
2023/09/26 05:55:35;;;;;;;23.52;16.70;;;;;;;;;;5051970;28;20367;-61
2023/09/26 05:58:01;;;;;;;22.02;14.77;;;;;;;;;;5070290;28;20474;-62
2023/09/26 06:00:27;;;;;;;25.83;14.95;;;;;;;;;;5070238;28;20032;-62
2023/09/26 06:02:54;;;;;;;24.05;15.45;;;;;;;;;;5070241;28;20084;-63
2023/09/26 06:05:20;;;;;;;24.73;18.02;;;;;;;;;;5070226;28;20029;-62
2023/09/26 06:07:46;;;;;;;24.08;16.13;;;;;;;;;;5084853;28;20089;-62
2023/09/26 06:10:12;;;;;;;23.75;16.00;;;;;;;;;;5090119;28;20020;-60
2023/09/26 06:12:38;;;;;;;22.58;15.35;;;;;;;;;;5090708;28;20511;-62
2023/09/26 06:15:05;;;;;;;20.15;14.70;;;;;;;;;;5090666;28;20103;-63
2023/09/26 06:17:31;;;;;;;21.80;14.65;;;;;;;;;;5090062;28;20028;-61
2023/09/26 06:19:57;;;;;;;23.58;16.13;;;;;;;;;;5089632;28;20024;-59
2023/09/26 06:22:24;;;;;;;24.20;16.35;;;;;;;;;;5089948;28;20037;-62
2023/09/26 06:24:50;;;;;;;20.10;15.05;;;;;;;;;;5090305;28;20604;-61
2023/09/26 06:27:16;;;;;;;25.13;16.38;;;;;;;;;;5089722;28;20161;-61
2023/09/26 06:29:42;;;;;;;23.70;16.77;;;;;;;;;;5089641;28;20067;-57
2023/09/26 06:32:08;;;;;;;26.55;17.52;;;;;;;;;;5090002;28;20031;-60
2023/09/26 06:34:35;;;;;;;25.02;16.77;;;;;;;;;;5090304;28;20079;-62
2023/09/26 06:37:02;;;;;;;23.35;17.48;;;;;;;;;;5090550;28;20452;-62
2023/09/26 06:39:28;;;;;;;23.33;16.80;;;;;;;;;;5089921;28;20024;-63
2023/09/26 06:41:54;;;;;;;23.38;16.27;;;;;;;;;;5090095;28;20040;-63
2023/09/26 06:44:20;;;;;;;24.65;17.52;;;;;;;;;;5089920;28;20101;-61
2023/09/26 06:46:46;;;;;;;23.67;17.42;;;;;;;;;;5091671;28;20027;-62
2023/09/26 06:49:12;;;;;;;20.50;15.95;;;;;;;;;;5093577;28;20032;-61
2023/09/26 06:51:38;;;;;;;22.40;16.42;;;;;;;;;;5093291;28;20032;-59
2023/09/26 06:54:04;;;;;;;20.70;14.70;;;;;;;;;;5093621;28;20355;-62
2023/09/26 06:56:30;;;;;;;21.35;15.70;;;;;;;;;;5093605;28;20024;-57
2023/09/26 06:58:56;;;;;;;19.20;15.20;;;;;;;;;;5074822;28;20035;-53
2023/09/26 07:01:22;;;;;;;33.80;16.55;;;;;;;;;;5074610;28;20027;-47
2023/09/26 07:03:49;;;;;;;21.52;15.25;;;;;;;;;;5093049;28;20021;-49
2023/09/26 07:06:15;;;;;;;20.80;14.95;;;;;;;;;;5083425;28;20483;-47
2023/09/26 07:08:43;;;;;;;24.70;17.50;;;;;;;;;;5084100;28;20032;-50
2023/09/26 07:11:09;;;;;;;22.77;17.17;;;;;;;;;;5081116;28;20024;-48
2023/09/26 07:13:35;;;;;;;20.52;15.43;;;;;;;;;;5082648;28;20108;-50
2023/09/26 07:16:05;;;;;;;22.40;17.15;;;;;;;;;;5083017;28;20027;-50
2023/09/26 07:18:31;;;;;;;23.10;16.35;;;;;;;;;;5081479;28;20032;-49
2023/09/26 07:21:05;;;;;;;20.83;16.40;;;;;;;;;;5073794;28;20032;-52
2023/09/26 07:23:34;;;;;;;26.60;18.13;;;;;;;;;;5074973;28;20020;-47
2023/09/26 07:26:07;;;;;;;20.38;15.73;;;;;;;;;;5080437;28;20074;-49
2023/09/26 07:28:33;;;;;;;24.48;16.58;;;;;;;;;;5076034;28;20119;-48
2023/09/26 07:30:59;;;;;;;21.15;15.57;;;;;;;;;;5071757;28;20025;-49
2023/09/26 07:33:26;;;;;;;21.75;14.85;;;;;;;;;;5072237;28;20021;-51
2023/09/26 07:35:52;;;;;;;24.00;15.30;;;;;;;;;;5091772;28;20028;-51
2023/09/26 07:38:18;;;;;;;19.65;15.30;;;;;;;;;;5092637;28;20081;-50
2023/09/26 07:40:44;;;;;;;20.05;15.63;;;;;;;;;;5092263;28;20032;-46
2023/09/26 07:43:10;;;;;;;18.70;14.50;;;;;;;;;;5092462;28;20367;-48
2023/09/26 07:45:40;;;;;;;19.25;15.48;;;;;;;;;;5092322;28;20107;-47
2023/09/26 07:48:06;;;;;;;22.23;15.63;;;;;;;;;;5092385;28;20020;-49
2023/09/26 07:50:33;;;;;;;21.90;15.40;;;;;;;;;;5091994;28;20169;-47
2023/09/26 07:52:59;;;;;;;20.20;15.40;;;;;;;;;;5091681;28;20035;-48
2023/09/26 07:55:25;;;;;;;20.55;16.05;;;;;;;;;;5092078;28;20032;-50
2023/09/26 07:57:51;;;;;;;18.90;15.48;;;;;;;;;;5090853;28;20020;-52
2023/09/26 08:00:17;;;;;;;20.15;16.10;;;;;;;;;;5073099;28;20069;-48
2023/09/26 08:02:43;;;;;;;19.50;14.88;;;;;;;;;;5085489;28;20084;-52
2023/09/26 08:05:09;;;;;;;20.95;15.40;;;;;;;;;;5079333;28;20020;-53
2023/09/26 08:07:35;;;;;;;22.88;15.25;;;;;;;;;;5082157;28;20086;-55
2023/09/26 08:10:02;;;;;;;20.80;14.93;;;;;;;;;;5064468;28;20111;-51
2023/09/26 08:12:28;;;;;;;18.98;14.55;;;;;;;;;;5081114;28;20046;-50
2023/09/26 08:14:54;;;;;;;21.15;15.52;;;;;;;;;;5081724;28;20457;-51
2023/09/26 08:17:20;;;;;;;19.98;14.77;;;;;;;;;;5079784;28;20051;-48
2023/09/26 08:19:46;;;;;;;20.45;14.70;;;;;;;;;;5063000;28;20051;-51
2023/09/26 08:22:13;;;;;;;21.48;15.50;;;;;;;;;;5080600;28;20049;-53
2023/09/26 08:24:39;;;;;;;18.90;13.75;;;;;;;;;;5088134;28;20059;-52
2023/09/26 08:27:06;;;;;;;18.52;14.73;;;;;;;;;;5091199;28;20058;-50
2023/09/26 08:29:32;;;;;;;21.33;14.82;;;;;;;;;;5091430;28;20035;-48
2023/09/26 08:31:58;;;;;;;21.70;15.75;;;;;;;;;;5091123;28;20042;-48
2023/09/26 08:34:25;;;;;;;18.55;14.77;;;;;;;;;;5091208;28;20482;-48
2023/09/26 08:36:52;;;;;;;21.10;15.15;;;;;;;;;;5091223;28;20120;-48
2023/09/26 08:39:18;;;;;;;20.40;14.98;;;;;;;;;;5091246;28;20020;-48
2023/09/26 08:41:47;;;;;;;19.00;15.05;;;;;;;;;;5082607;28;20077;-50
2023/09/26 08:44:13;;;;;;;18.38;14.13;;;;;;;;;;5087351;28;20030;-48
2023/09/26 08:46:40;;;;;;;19.20;14.18;;;;;;;;;;5090946;28;20099;-49
2023/09/26 08:49:06;;;;;;;19.83;14.80;;;;;;;;;;5090611;28;20108;-55
2023/09/26 08:51:33;;;;;;;20.25;14.98;;;;;;;;;;5072500;28;20474;-52
2023/09/26 08:53:59;;;;;;;19.80;14.73;;;;;;;;;;5090836;28;20161;-49
2023/09/26 08:56:25;;;;;;;22.20;15.55;;;;;;;;;;5071924;28;20065;-53
2023/09/26 08:58:54;;;;;;;20.38;16.10;;;;;;;;;;5089291;28;20111;-51
2023/09/26 09:01:20;;;;;;;21.05;14.00;;;;;;;;;;5071337;28;20024;-53
2023/09/26 09:03:46;;;;;;;18.15;14.25;;;;;;;;;;5070851;28;20153;-53
2023/09/26 09:06:13;;;;;;;19.77;15.18;;;;;;;;;;5089276;28;20386;-56
2023/09/26 09:08:39;;;;;;;20.60;15.43;;;;;;;;;;5088964;28;20047;-51
2023/09/26 09:11:05;;;;;;;21.42;15.85;;;;;;;;;;5089441;28;20462;-51
2023/09/26 09:13:32;;;;;;;20.20;16.30;;;;;;;;;;5090210;28;20051;-54
2023/09/26 09:16:11;;;;;;;20.70;15.07;;;;;;;;;;5090636;28;20058;-54
2023/09/26 09:18:38;;;;;;;19.55;15.35;;;;;;;;;;5090380;28;20101;-55
2023/09/26 09:21:22;;;;;;;18.35;14.02;;;;;;;;;;5090346;28;20028;-53
2023/09/26 09:23:49;;;;;;;18.63;14.57;;;;;;;;;;5089719;28;20025;-53
2023/09/26 09:26:15;;;;;;;21.38;15.85;;;;;;;;;;5089835;28;20020;-57
2023/09/26 09:28:41;;;;;;;21.05;15.10;;;;;;;;;;5089608;28;20466;-54
2023/09/26 09:31:07;;;;;;;20.10;15.02;;;;;;;;;;5089407;28;20028;-56
2023/09/26 09:33:33;;;;;;;20.15;15.55;;;;;;;;;;5089387;28;20580;-53
2023/09/26 09:35:59;;;;;;;23.33;15.20;;;;;;;;;;5089378;28;20032;-53
2023/09/26 09:38:26;;;;;;;20.05;15.55;;;;;;;;;;5089313;28;20586;-54
2023/09/26 09:40:52;;;;;;;20.25;15.35;;;;;;;;;;5088875;28;20501;-51
2023/09/26 09:43:19;;;;;;;17.70;14.32;;;;;;;;;;5088990;28;20464;-55
2023/09/26 09:45:47;;;;;;;18.25;14.30;;;;;;;;;;5089238;28;20016;-54
2023/09/26 09:48:14;;;;;;;17.85;14.52;;;;;;;;;;5089276;28;20020;-54
2023/09/26 09:50:41;;;;;;;20.42;15.18;;;;;;;;;;5089042;28;20077;-52
2023/09/26 09:53:08;;;;;;;18.83;14.70;;;;;;;;;;5089119;28;20096;-48
2023/09/26 09:55:38;;;;;;;20.55;16.27;;;;;;;;;;5089059;28;20092;-54
2023/09/26 09:58:08;;;;;;;22.10;15.93;;;;;;;;;;5089492;28;20040;-54
2023/09/26 10:00:36;;;;;;;19.02;15.25;;;;;;;;;;5088824;28;20034;-56
2023/09/26 10:03:04;;;;;;;20.48;15.20;;;;;;;;;;5089356;28;20064;-54
2023/09/26 10:05:31;;;;;;;18.42;15.55;;;;;;;;;;5089236;28;20371;-55
2023/09/26 10:07:58;;;;;;;19.85;15.50;;;;;;;;;;5071092;28;20619;-53
2023/09/26 10:10:25;;;;;;;19.23;14.45;;;;;;;;;;5089155;28;20039;-57
2023/09/26 10:12:51;;;;;;;20.70;14.57;;;;;;;;;;5088949;28;20501;-56
2023/09/26 10:15:17;;;;;;;20.42;15.50;;;;;;;;;;5089000;28;20397;-54
2023/09/26 10:17:45;;;;;;;18.17;14.77;;;;;;;;;;5088774;28;20028;-57
2023/09/26 10:20:12;;;;;;;18.42;14.88;;;;;;;;;;5088837;28;20051;-55
2023/09/26 10:22:41;;;;;;;20.67;15.20;;;;;;;;;;5053758;28;1087768;-54
2023/09/26 10:25:12;;;;;;;20.20;15.65;;;;;;;;;;5093636;28;20278;-54
2023/09/26 10:27:42;;;;;;;19.08;15.18;;;;;;;;;;5093991;28;20065;-57
2023/09/26 10:30:10;;;;;;;21.65;15.55;;;;;;;;;;5093472;28;20028;-53
2023/09/26 10:32:40;;;;;;;18.05;14.57;;;;;;;;;;5093529;28;20490;-55
2023/09/26 10:35:15;;;;;;;18.77;14.98;;;;;;;;;;5093400;28;20039;-53
2023/09/26 10:37:44;;;;;;;20.00;14.80;;;;;;;;;;5093462;28;20068;-55
2023/09/26 10:40:14;;;;;;;19.58;15.75;;;;;;;;;;5092956;28;20032;-55
2023/09/26 10:42:43;;;;;;;20.20;15.32;;;;;;;;;;5106862;28;20061;-56
2023/09/26 10:45:10;;;;;;;17.83;14.60;;;;;;;;;;5096906;28;20106;-54
2023/09/26 10:47:38;;;;;;;19.30;14.88;;;;;;;;;;5093106;28;20024;-55
2023/09/26 10:50:09;;;;;;;18.55;15.15;;;;;;;;;;5092919;28;20053;-52
2023/09/26 10:52:35;;;;;;;19.80;15.40;;;;;;;;;;5092371;28;20396;-58
2023/09/26 10:55:02;;;;;;;20.15;14.73;;;;;;;;;;5073106;28;20443;-54
2023/09/26 10:57:28;;;;;;;17.88;15.45;;;;;;;;;;5092270;28;20055;-55
2023/09/26 10:59:54;;;;;;;18.88;14.57;;;;;;;;;;5092617;28;20030;-56
2023/09/26 11:02:22;;;;;;;18.45;15.25;;;;;;;;;;5092920;28;20499;-55
2023/09/26 11:04:48;;;;;;;18.63;15.88;;;;;;;;;;5092824;28;20016;-58
2023/09/26 11:07:15;;;;;;;18.30;14.50;;;;;;;;;;5074928;28;20366;-59
2023/09/26 11:09:42;;;;;;;20.27;14.80;;;;;;;;;;5092975;28;20111;-55
2023/09/26 11:12:08;;;;;;;19.35;16.25;;;;;;;;;;5092585;28;20024;-54
2023/09/26 11:14:34;;;;;;;19.27;15.60;;;;;;;;;;5092841;28;20032;-54
2023/09/26 11:17:00;;;;;;;18.95;16.08;;;;;;;;;;5092570;28;20035;-56
2023/09/26 11:19:27;;;;;;;19.80;15.90;;;;;;;;;;5092913;28;20064;-54
2023/09/26 11:21:56;;;;;;;18.40;15.10;;;;;;;;;;5092448;28;20020;-54
2023/09/26 11:24:31;;;;;;;18.10;15.05;;;;;;;;;;5074944;28;20031;-55
2023/09/26 11:26:58;;;;;;;18.70;15.77;;;;;;;;;;5093901;28;20048;-57
2023/09/26 11:29:24;;;;;;;18.13;15.52;;;;;;;;;;5092574;28;20034;-54
2023/09/26 11:31:52;;;;;;;18.48;15.20;;;;;;;;;;5092186;28;20035;-56
2023/09/26 11:34:18;;;;;;;20.60;15.88;;;;;;;;;;5092375;28;20508;-55
2023/09/26 11:36:44;;;;;;;18.13;15.30;;;;;;;;;;5092583;28;20050;-53
2023/09/26 11:39:15;;;;;;;19.67;15.73;;;;;;;;;;5092599;28;20370;-54
2023/09/26 11:41:41;;;;;;;20.60;15.80;;;;;;;;;;5091951;28;20028;-56
2023/09/26 11:44:08;;;;;;;19.55;16.10;;;;;;;;;;5074126;28;20028;-53
2023/09/26 11:46:42;;;;;;;18.33;15.90;;;;;;;;;;5074694;28;20382;-54
2023/09/26 11:49:08;;;;;;;18.60;16.10;;;;;;;;;;5092240;28;20059;-52
2023/09/26 11:51:35;;;;;;;18.67;16.67;;;;;;;;;;5074056;28;20024;-56
2023/09/26 11:54:01;;;;;;;17.92;15.15;;;;;;;;;;5074266;28;20481;-56
2023/09/26 11:56:27;;;;;;;18.50;16.10;;;;;;;;;;5092139;28;20059;-57
2023/09/26 11:58:53;;;;;;;22.67;16.05;;;;;;;;;;5073947;28;20034;-52
2023/09/26 12:01:20;;;;;;;18.60;15.20;;;;;;;;;;5091882;28;20016;-53
2023/09/26 12:03:46;;;;;;;18.10;14.85;;;;;;;;;;5092132;28;20058;-51
2023/09/26 12:06:12;;;;;;;17.70;15.77;;;;;;;;;;5091788;28;20035;-52
2023/09/26 12:08:39;;;;;;;19.48;16.33;;;;;;;;;;5091682;28;20103;-55
2023/09/26 12:11:04;;;;;;;20.58;16.30;;;;;;;;;;5091570;28;20051;-55
2023/09/26 12:13:32;;;;;;;18.77;15.82;;;;;;;;;;5091635;28;20028;-53
2023/09/26 12:15:58;;;;;;;17.30;15.38;;;;;;;;;;5091606;28;20028;-53
2023/09/26 12:18:24;;;;;;;18.25;15.38;;;;;;;;;;5071762;28;20048;-54
2023/09/26 12:20:55;;;;;;;19.15;16.42;;;;;;;;;;5070858;28;20458;-56
2023/09/26 12:23:21;;;;;;;18.27;15.30;;;;;;;;;;5071024;28;20433;-54
2023/09/26 12:25:48;;;;;;;18.30;14.80;;;;;;;;;;5071004;28;20064;-55
2023/09/26 12:28:14;;;;;;;18.67;15.35;;;;;;;;;;5070895;28;20480;-56
2023/09/26 12:30:41;;;;;;;19.50;15.90;;;;;;;;;;5070641;28;20020;-58
2023/09/26 12:33:07;;;;;;;17.83;15.38;;;;;;;;;;5071110;28;20021;-55
2023/09/26 12:35:33;;;;;;;17.25;15.45;;;;;;;;;;5087665;28;20036;-56
2023/09/26 12:38:00;;;;;;;18.85;15.77;;;;;;;;;;5091262;28;20099;-52
2023/09/26 12:40:26;;;;;;;17.75;15.32;;;;;;;;;;5090770;28;20016;-56
2023/09/26 12:42:52;;;;;;;18.05;15.65;;;;;;;;;;5090836;28;20432;-57
2023/09/26 12:45:18;;;;;;;17.45;15.50;;;;;;;;;;5089327;28;20039;-60
2023/09/26 12:47:44;;;;;;;19.33;16.05;;;;;;;;;;5090741;28;20516;-57
2023/09/26 12:50:11;;;;;;;18.80;15.63;;;;;;;;;;5090596;28;20115;-55
2023/09/26 12:52:37;;;;;;;19.15;16.08;;;;;;;;;;5090770;28;20030;-53
2023/09/26 12:55:04;;;;;;;18.42;15.85;;;;;;;;;;5090910;28;20039;-55
2023/09/26 12:57:30;;;;;;;17.63;15.73;;;;;;;;;;5090721;28;20494;-52
2023/09/26 12:59:56;;;;;;;17.95;15.68;;;;;;;;;;5090454;28;20034;-55
2023/09/26 13:02:23;;;;;;;17.23;15.38;;;;;;;;;;5090702;28;20083;-55
2023/09/26 13:04:50;;;;;;;17.73;15.80;;;;;;;;;;5091141;28;20099;-57
2023/09/26 13:07:16;;;;;;;18.02;16.13;;;;;;;;;;5073134;28;20039;-50
2023/09/26 13:09:42;;;;;;;17.98;15.77;;;;;;;;;;5072684;28;20497;-54
2023/09/26 13:12:08;;;;;;;18.83;15.98;;;;;;;;;;5090465;28;20036;-55
2023/09/26 13:14:34;;;;;;;17.75;15.85;;;;;;;;;;5091273;28;20024;-53
2023/09/26 13:17:00;;;;;;;16.92;15.13;;;;;;;;;;5090887;28;20040;-57
2023/09/26 13:19:26;;;;;;;18.00;15.63;;;;;;;;;;5090188;28;20031;-59
2023/09/26 13:21:54;;;;;;;19.40;15.95;;;;;;;;;;5091162;28;20041;-54
2023/09/26 13:24:21;;;;;;;18.45;15.90;;;;;;;;;;5071537;28;20511;-54
2023/09/26 13:26:47;;;;;;;19.13;16.20;;;;;;;;;;5094783;28;20020;-51
2023/09/26 13:29:13;;;;;;;17.90;15.48;;;;;;;;;;5089926;28;20077;-55
2023/09/26 13:31:42;;;;;;;17.95;15.57;;;;;;;;;;5089892;28;20028;-49
2023/09/26 13:34:08;;;;;;;17.77;15.73;;;;;;;;;;5071447;28;20028;-54
2023/09/26 13:36:34;;;;;;;17.55;15.30;;;;;;;;;;5090022;28;20028;-51
2023/09/26 13:39:00;;;;;;;18.52;16.00;;;;;;;;;;5088690;28;20079;-52
2023/09/26 13:41:26;;;;;;;17.70;14.82;;;;;;;;;;5089277;28;20020;-54
2023/09/26 13:43:52;;;;;;;19.63;15.52;;;;;;;;;;5090039;28;20389;-58
2023/09/26 13:46:18;;;;;;;17.92;16.02;;;;;;;;;;5089740;28;20020;-54
2023/09/26 13:48:44;;;;;;;18.50;15.02;;;;;;;;;;5089974;28;20505;-54
2023/09/26 13:51:10;;;;;;;17.50;15.52;;;;;;;;;;5089647;28;20024;-56
2023/09/26 13:53:36;;;;;;;17.58;15.13;;;;;;;;;;5089638;28;20389;-55
2023/09/26 13:56:02;;;;;;;17.70;15.80;;;;;;;;;;5089133;28;20035;-54
2023/09/26 13:58:28;;;;;;;18.17;15.30;;;;;;;;;;5071699;28;20028;-58
2023/09/26 14:00:54;;;;;;;17.30;14.98;;;;;;;;;;5089309;28;20425;-56
2023/09/26 14:03:20;;;;;;;17.58;15.10;;;;;;;;;;5089355;28;20024;-54
2023/09/26 14:05:46;;;;;;;17.23;15.00;;;;;;;;;;5089463;28;20020;-56
2023/09/26 14:08:12;;;;;;;18.25;15.30;;;;;;;;;;5071828;28;20051;-58
2023/09/26 14:10:38;;;;;;;18.08;14.63;;;;;;;;;;5084847;28;20028;-56
2023/09/26 14:13:04;;;;;;;19.50;15.50;;;;;;;;;;5088913;28;20032;-54